sensor_id;sensor_type;location;lat;lon;timestamp;pressure;altitude;pressure_sealevel;temperature;humidity
77572;BME280;67214;47.454;18.966;2023-03-14T00:01:53;99464.38;;;6.26;59.05
77572;BME280;67214;47.454;18.966;2023-03-14T00:04:21;99458.97;;;6.22;59.17
77572;BME280;67214;47.454;18.966;2023-03-14T00:06:48;99461.00;;;6.18;58.96
77572;BME280;67214;47.454;18.966;2023-03-14T00:09:16;99457.52;;;6.18;59.01
77572;BME280;67214;47.454;18.966;2023-03-14T00:11:44;99442.53;;;6.13;59.34
77572;BME280;67214;47.454;18.966;2023-03-14T00:14:12;99450.33;;;6.14;59.76
77572;BME280;67214;47.454;18.966;2023-03-14T00:16:41;99443.38;;;6.13;59.48
77572;BME280;67214;47.454;18.966;2023-03-14T00:19:08;99441.48;;;6.15;59.22
77572;BME280;67214;47.454;18.966;2023-03-14T00:21:36;99441.48;;;6.15;59.14
77572;BME280;67214;47.454;18.966;2023-03-14T00:24:03;99439.29;;;6.09;59.90
77572;BME280;67214;47.454;18.966;2023-03-14T00:26:32;99427.34;;;6.11;59.48
77572;BME280;67214;47.454;18.966;2023-03-14T00:28:59;99427.55;;;6.07;59.43
77572;BME280;67214;47.454;18.966;2023-03-14T00:31:27;99424.91;;;6.07;60.20
77572;BME280;67214;47.454;18.966;2023-03-14T00:33:54;99415.13;;;6.10;60.18
77572;BME280;67214;47.454;18.966;2023-03-14T00:36:22;99405.50;;;6.27;59.38
77572;BME280;67214;47.454;18.966;2023-03-14T00:38:51;99410.56;;;6.35;58.46
77572;BME280;67214;47.454;18.966;2023-03-14T00:41:21;99407.69;;;6.38;58.12
77572;BME280;67214;47.454;18.966;2023-03-14T00:43:50;99418.98;;;6.51;57.94
77572;BME280;67214;47.454;18.966;2023-03-14T00:46:18;99408.45;;;6.51;57.75
77572;BME280;67214;47.454;18.966;2023-03-14T00:48:46;99407.39;;;6.60;57.50
77572;BME280;67214;47.454;18.966;2023-03-14T00:51:14;99395.16;;;6.59;58.41
77572;BME280;67214;47.454;18.966;2023-03-14T00:53:42;99396.72;;;6.61;58.36
77572;BME280;67214;47.454;18.966;2023-03-14T00:56:11;99397.06;;;6.57;58.39
77572;BME280;67214;47.454;18.966;2023-03-14T00:58:39;99396.36;;;6.54;58.41
77572;BME280;67214;47.454;18.966;2023-03-14T01:01:15;99382.47;;;6.58;58.05
77572;BME280;67214;47.454;18.966;2023-03-14T01:03:44;99389.53;;;6.58;57.75
77572;BME280;67214;47.454;18.966;2023-03-14T01:06:16;99381.27;;;6.51;58.75
77572;BME280;67214;47.454;18.966;2023-03-14T01:08:45;99392.02;;;6.42;59.23
77572;BME280;67214;47.454;18.966;2023-03-14T01:11:16;99383.86;;;6.34;59.19
77572;BME280;67214;47.454;18.966;2023-03-14T01:13:43;99375.23;;;6.27;59.24
77572;BME280;67214;47.454;18.966;2023-03-14T01:16:12;99381.88;;;6.20;59.31
77572;BME280;67214;47.454;18.966;2023-03-14T01:18:41;99384.78;;;6.28;58.82
77572;BME280;67214;47.454;18.966;2023-03-14T01:21:35;99373.52;;;6.20;58.88
77572;BME280;67214;47.454;18.966;2023-03-14T01:23:44;99367.78;;;6.15;59.64
77572;BME280;67214;47.454;18.966;2023-03-14T01:26:14;99364.06;;;6.18;59.50
77572;BME280;67214;47.454;18.966;2023-03-14T01:28:42;99359.52;;;6.14;59.79
77572;BME280;67214;47.454;18.966;2023-03-14T01:31:10;99346.45;;;6.07;59.96
77572;BME280;67214;47.454;18.966;2023-03-14T01:33:38;99334.48;;;6.03;59.78
77572;BME280;67214;47.454;18.966;2023-03-14T01:36:08;99321.30;;;5.97;59.85
77572;BME280;67214;47.454;18.966;2023-03-14T01:38:37;99307.63;;;5.92;60.76
77572;BME280;67214;47.454;18.966;2023-03-14T01:41:07;99324.13;;;5.89;60.51
77572;BME280;67214;47.454;18.966;2023-03-14T01:43:35;99316.23;;;5.89;60.51
77572;BME280;67214;47.454;18.966;2023-03-14T01:48:46;99304.73;;;6.19;59.02
77572;BME280;67214;47.454;18.966;2023-03-14T01:51:16;99288.30;;;6.16;59.53
77572;BME280;67214;47.454;18.966;2023-03-14T01:53:43;99278.14;;;6.17;59.27
77572;BME280;67214;47.454;18.966;2023-03-14T01:56:13;99277.06;;;6.14;59.79
77572;BME280;67214;47.454;18.966;2023-03-14T01:58:44;99256.83;;;6.08;59.90
77572;BME280;67214;47.454;18.966;2023-03-14T02:01:13;99277.91;;;6.14;60.01
77572;BME280;67214;47.454;18.966;2023-03-14T02:03:53;99289.16;;;6.11;60.18
77572;BME280;67214;47.454;18.966;2023-03-14T02:06:31;99261.50;;;6.16;60.14
77572;BME280;67214;47.454;18.966;2023-03-14T02:08:54;99268.09;;;6.11;59.79
77572;BME280;67214;47.454;18.966;2023-03-14T02:11:23;99271.67;;;6.10;59.92
77572;BME280;67214;47.454;18.966;2023-03-14T02:13:51;99266.66;;;6.06;60.02
77572;BME280;67214;47.454;18.966;2023-03-14T02:16:19;99278.02;;;6.07;60.39
77572;BME280;67214;47.454;18.966;2023-03-14T02:18:47;99264.02;;;6.06;60.18
77572;BME280;67214;47.454;18.966;2023-03-14T02:26:40;99240.09;;;6.10;60.23
77572;BME280;67214;47.454;18.966;2023-03-14T02:29:08;99244.64;;;6.13;59.74
77572;BME280;67214;47.454;18.966;2023-03-14T02:31:35;99236.38;;;6.06;60.29
77572;BME280;67214;47.454;18.966;2023-03-14T02:34:04;99218.56;;;5.99;60.59
77572;BME280;67214;47.454;18.966;2023-03-14T02:36:32;99227.75;;;6.04;60.34
77572;BME280;67214;47.454;18.966;2023-03-14T02:39:14;99221.05;;;6.00;60.52
77572;BME280;67214;47.454;18.966;2023-03-14T02:41:42;99230.03;;;6.09;60.23
77572;BME280;67214;47.454;18.966;2023-03-14T02:44:12;99233.97;;;6.03;60.70
77572;BME280;67214;47.454;18.966;2023-03-14T02:46:39;99233.59;;;5.91;61.11
77572;BME280;67214;47.454;18.966;2023-03-14T02:49:10;99221.52;;;5.89;61.34
77572;BME280;67214;47.454;18.966;2023-03-14T02:51:38;99218.41;;;5.89;61.13
77572;BME280;67214;47.454;18.966;2023-03-14T02:54:07;99207.13;;;5.82;61.59
77572;BME280;67214;47.454;18.966;2023-03-14T02:56:34;99215.86;;;5.82;61.79
77572;BME280;67214;47.454;18.966;2023-03-14T02:59:04;99209.30;;;5.88;61.82
77572;BME280;67214;47.454;18.966;2023-03-14T03:01:32;99198.70;;;5.95;61.55
77572;BME280;67214;47.454;18.966;2023-03-14T03:04:00;99196.78;;;6.02;61.24
77572;BME280;67214;47.454;18.966;2023-03-14T03:06:27;99195.23;;;6.11;61.25
77572;BME280;67214;47.454;18.966;2023-03-14T03:08:55;99193.78;;;6.13;61.58
77572;BME280;67214;47.454;18.966;2023-03-14T03:11:22;99187.69;;;6.18;61.44
77572;BME280;67214;47.454;18.966;2023-03-14T03:13:50;99187.70;;;6.23;61.35
77572;BME280;67214;47.454;18.966;2023-03-14T03:16:17;99186.86;;;6.23;61.27
77572;BME280;67214;47.454;18.966;2023-03-14T03:18:45;99191.14;;;6.40;60.73
77572;BME280;67214;47.454;18.966;2023-03-14T03:21:12;99181.58;;;6.34;60.91
77572;BME280;67214;47.454;18.966;2023-03-14T03:23:40;99183.25;;;6.29;60.94
77572;BME280;67214;47.454;18.966;2023-03-14T03:26:09;99166.02;;;6.25;61.93
77572;BME280;67214;47.454;18.966;2023-03-14T03:28:37;99173.55;;;6.24;61.15
77572;BME280;67214;47.454;18.966;2023-03-14T03:31:09;99161.84;;;6.17;61.57
77572;BME280;67214;47.454;18.966;2023-03-14T03:33:38;99176.69;;;6.18;61.51
77572;BME280;67214;47.454;18.966;2023-03-14T03:36:06;99154.17;;;6.25;61.66
77572;BME280;67214;47.454;18.966;2023-03-14T03:38:33;99163.27;;;6.38;61.59
77572;BME280;67214;47.454;18.966;2023-03-14T03:41:08;99168.75;;;6.40;61.12
77572;BME280;67214;47.454;18.966;2023-03-14T03:43:35;99148.78;;;6.38;61.31
77572;BME280;67214;47.454;18.966;2023-03-14T03:46:04;99168.76;;;6.46;61.20
77572;BME280;67214;47.454;18.966;2023-03-14T03:48:32;99137.41;;;6.43;61.36
77572;BME280;67214;47.454;18.966;2023-03-14T03:50:59;99126.03;;;6.37;61.49
77572;BME280;67214;47.454;18.966;2023-03-14T03:53:27;99143.73;;;6.40;61.38
77572;BME280;67214;47.454;18.966;2023-03-14T03:55:55;99148.78;;;6.38;61.84
77572;BME280;67214;47.454;18.966;2023-03-14T03:58:22;99157.16;;;6.43;61.47
77572;BME280;67214;47.454;18.966;2023-03-14T04:00:49;99160.77;;;6.31;61.60
77572;BME280;67214;47.454;18.966;2023-03-14T04:03:17;99160.28;;;6.20;61.76
77572;BME280;67214;47.454;18.966;2023-03-14T04:05:44;99162.67;;;6.12;61.97
77572;BME280;67214;47.454;18.966;2023-03-14T04:08:12;99165.80;;;6.06;62.27
77572;BME280;67214;47.454;18.966;2023-03-14T04:10:40;99158.38;;;5.94;62.53
77572;BME280;67214;47.454;18.966;2023-03-14T04:13:07;99164.72;;;5.86;63.20
77572;BME280;67214;47.454;18.966;2023-03-14T04:15:34;99164.36;;;5.91;62.90
77572;BME280;67214;47.454;18.966;2023-03-14T04:18:02;99155.37;;;5.88;62.97
77572;BME280;67214;47.454;18.966;2023-03-14T04:20:29;99155.51;;;5.86;63.48
77572;BME280;67214;47.454;18.966;2023-03-14T04:22:57;99150.20;;;5.81;63.47
77572;BME280;67214;47.454;18.966;2023-03-14T04:25:24;99149.83;;;5.80;63.52
77572;BME280;67214;47.454;18.966;2023-03-14T04:27:52;99152.34;;;5.76;63.76
77572;BME280;67214;47.454;18.966;2023-03-14T04:30:19;99173.15;;;5.73;63.82
77572;BME280;67214;47.454;18.966;2023-03-14T04:32:47;99170.84;;;5.63;63.87
77572;BME280;67214;47.454;18.966;2023-03-14T04:35:14;99167.25;;;5.53;64.63
77572;BME280;67214;47.454;18.966;2023-03-14T04:37:42;99164.94;;;5.43;64.94
77572;BME280;67214;47.454;18.966;2023-03-14T04:40:10;99165.18;;;5.40;65.03
77572;BME280;67214;47.454;18.966;2023-03-14T04:42:38;99162.11;;;5.46;65.06
77572;BME280;67214;47.454;18.966;2023-03-14T04:45:06;99157.53;;;5.42;65.26
77572;BME280;67214;47.454;18.966;2023-03-14T04:47:35;99149.16;;;5.43;65.03
77572;BME280;67214;47.454;18.966;2023-03-14T04:50:02;99148.80;;;5.36;65.29
77572;BME280;67214;47.454;18.966;2023-03-14T04:52:30;99149.38;;;5.34;65.93
77572;BME280;67214;47.454;18.966;2023-03-14T04:54:57;99151.53;;;5.35;65.68
77572;BME280;67214;47.454;18.966;2023-03-14T04:57:25;99147.41;;;5.60;65.26
77572;BME280;67214;47.454;18.966;2023-03-14T04:59:52;99154.22;;;5.62;65.12
77572;BME280;67214;47.454;18.966;2023-03-14T05:02:20;99155.06;;;5.63;64.97
77572;BME280;67214;47.454;18.966;2023-03-14T05:04:47;99155.70;;;5.78;64.51
77572;BME280;67214;47.454;18.966;2023-03-14T05:07:15;99149.22;;;5.71;64.64
77572;BME280;67214;47.454;18.966;2023-03-14T05:09:42;99145.14;;;5.67;64.75
77572;BME280;67214;47.454;18.966;2023-03-14T05:12:10;99145.52;;;5.62;65.44
77572;BME280;67214;47.454;18.966;2023-03-14T05:14:37;99148.73;;;5.60;65.48
77572;BME280;67214;47.454;18.966;2023-03-14T05:17:05;99146.92;;;5.55;65.78
77572;BME280;67214;47.454;18.966;2023-03-14T05:19:33;99145.00;;;5.51;65.70
77572;BME280;67214;47.454;18.966;2023-03-14T05:22:00;99137.12;;;5.51;65.78
77572;BME280;67214;47.454;18.966;2023-03-14T05:24:27;99126.02;;;5.53;65.82
77572;BME280;67214;47.454;18.966;2023-03-14T05:26:55;99127.81;;;5.53;66.04
77572;BME280;67214;47.454;18.966;2023-03-14T05:29:22;99134.50;;;5.62;65.76
77572;BME280;67214;47.454;18.966;2023-03-14T05:31:50;99125.47;;;6.00;64.12
77572;BME280;67214;47.454;18.966;2023-03-14T05:34:17;99128.70;;;6.09;64.14
77572;BME280;67214;47.454;18.966;2023-03-14T05:36:45;99130.31;;;6.49;62.39
77572;BME280;67214;47.454;18.966;2023-03-14T05:39:12;99115.43;;;6.65;61.90
77572;BME280;67214;47.454;18.966;2023-03-14T05:41:40;99116.11;;;6.78;61.21
77572;BME280;67214;47.454;18.966;2023-03-14T05:44:07;99102.44;;;7.10;59.98
77572;BME280;67214;47.454;18.966;2023-03-14T05:46:34;99119.64;;;7.25;59.17
77572;BME280;67214;47.454;18.966;2023-03-14T05:49:02;99118.61;;;7.37;59.39
77572;BME280;67214;47.454;18.966;2023-03-14T05:51:29;99125.99;;;7.43;59.63
77572;BME280;67214;47.454;18.966;2023-03-14T05:53:57;99123.55;;;7.52;58.84
77572;BME280;67214;47.454;18.966;2023-03-14T05:56:24;99116.20;;;7.70;57.81
77572;BME280;67214;47.454;18.966;2023-03-14T05:58:52;99106.43;;;7.82;58.10
77572;BME280;67214;47.454;18.966;2023-03-14T06:01:19;99122.83;;;8.01;56.85
77572;BME280;67214;47.454;18.966;2023-03-14T06:03:47;99119.84;;;8.15;56.84
77572;BME280;67214;47.454;18.966;2023-03-14T06:06:14;99120.41;;;8.28;56.71
77572;BME280;67214;47.454;18.966;2023-03-14T06:08:43;99122.92;;;8.35;56.35
77572;BME280;67214;47.454;18.966;2023-03-14T06:11:10;99111.20;;;8.43;56.51
77572;BME280;67214;47.454;18.966;2023-03-14T06:13:37;99109.55;;;8.52;56.03
77572;BME280;67214;47.454;18.966;2023-03-14T06:16:05;99116.18;;;8.71;54.95
77572;BME280;67214;47.454;18.966;2023-03-14T06:18:33;99108.75;;;8.80;55.12
77572;BME280;67214;47.454;18.966;2023-03-14T06:21:00;99111.45;;;8.94;54.53
77572;BME280;67214;47.454;18.966;2023-03-14T06:23:28;99106.02;;;9.05;54.67
77572;BME280;67214;47.454;18.966;2023-03-14T06:25:57;99106.12;;;9.09;54.29
77572;BME280;67214;47.454;18.966;2023-03-14T06:28:25;99110.28;;;9.11;54.39
77572;BME280;67214;47.454;18.966;2023-03-14T06:30:53;99102.54;;;9.14;54.75
77572;BME280;67214;47.454;18.966;2023-03-14T06:33:20;99104.22;;;9.24;53.62
77572;BME280;67214;47.454;18.966;2023-03-14T06:35:47;99106.45;;;9.29;54.17
77572;BME280;67214;47.454;18.966;2023-03-14T06:38:15;99107.31;;;9.33;54.07
77572;BME280;67214;47.454;18.966;2023-03-14T06:40:42;99112.35;;;9.37;53.93
77572;BME280;67214;47.454;18.966;2023-03-14T06:43:10;99107.25;;;9.39;54.08
77572;BME280;67214;47.454;18.966;2023-03-14T06:45:37;99106.54;;;9.47;53.94
77572;BME280;67214;47.454;18.966;2023-03-14T06:48:05;99110.92;;;9.52;53.56
77572;BME280;67214;47.454;18.966;2023-03-14T06:50:33;99108.69;;;9.57;53.78
77572;BME280;67214;47.454;18.966;2023-03-14T06:53:01;99114.37;;;9.62;53.49
77572;BME280;67214;47.454;18.966;2023-03-14T06:55:28;99119.95;;;9.68;54.07
77572;BME280;67214;47.454;18.966;2023-03-14T06:57:55;99105.31;;;9.74;53.95
77572;BME280;67214;47.454;18.966;2023-03-14T07:00:23;99113.02;;;9.81;53.23
77572;BME280;67214;47.454;18.966;2023-03-14T07:02:51;99118.85;;;9.85;53.14
77572;BME280;67214;47.454;18.966;2023-03-14T07:05:18;99119.31;;;9.94;53.10
77572;BME280;67214;47.454;18.966;2023-03-14T07:07:45;99117.88;;;9.99;52.56
77572;BME280;67214;47.454;18.966;2023-03-14T07:10:13;99116.88;;;10.10;53.06
77572;BME280;67214;47.454;18.966;2023-03-14T07:12:40;99107.88;;;10.16;52.43
77572;BME280;67214;47.454;18.966;2023-03-14T07:15:08;99110.14;;;10.25;52.56
77572;BME280;67214;47.454;18.966;2023-03-14T07:17:35;99110.06;;;10.31;51.90
77572;BME280;67214;47.454;18.966;2023-03-14T07:20:03;99119.03;;;10.34;52.10
77572;BME280;67214;47.454;18.966;2023-03-14T07:22:31;99118.15;;;10.43;51.70
77572;BME280;67214;47.454;18.966;2023-03-14T07:24:59;99112.36;;;10.43;51.85
77572;BME280;67214;47.454;18.966;2023-03-14T07:27:26;99117.55;;;10.49;51.75
77572;BME280;67214;47.454;18.966;2023-03-14T07:29:54;99107.03;;;10.57;51.91
77572;BME280;67214;47.454;18.966;2023-03-14T07:32:21;99105.20;;;10.71;51.14
77572;BME280;67214;47.454;18.966;2023-03-14T07:34:48;99111.34;;;10.89;50.90
77572;BME280;67214;47.454;18.966;2023-03-14T07:37:16;99092.47;;;11.10;50.19
77572;BME280;67214;47.454;18.966;2023-03-14T07:39:43;99086.91;;;11.21;50.47
77572;BME280;67214;47.454;18.966;2023-03-14T07:42:11;99087.50;;;11.29;49.57
77572;BME280;67214;47.454;18.966;2023-03-14T07:44:38;99085.05;;;11.35;49.88
77572;BME280;67214;47.454;18.966;2023-03-14T07:47:06;99085.08;;;11.39;49.24
77572;BME280;67214;47.454;18.966;2023-03-14T07:49:33;99077.00;;;11.45;49.14
77572;BME280;67214;47.454;18.966;2023-03-14T07:52:00;99073.14;;;11.65;49.14
77572;BME280;67214;47.454;18.966;2023-03-14T07:54:28;99077.08;;;11.83;48.82
77572;BME280;67214;47.454;18.966;2023-03-14T07:56:55;99071.35;;;11.99;48.88
77572;BME280;67214;47.454;18.966;2023-03-14T07:59:25;99056.28;;;12.08;48.67
77572;BME280;67214;47.454;18.966;2023-03-14T08:01:52;99063.12;;;12.19;48.45
77572;BME280;67214;47.454;18.966;2023-03-14T08:04:19;99061.04;;;12.34;48.99
77572;BME280;67214;47.454;18.966;2023-03-14T08:06:47;99056.77;;;12.53;47.78
77572;BME280;67214;47.454;18.966;2023-03-14T08:09:15;99048.80;;;12.66;47.56
77572;BME280;67214;47.454;18.966;2023-03-14T08:11:42;99041.49;;;12.84;47.18
77572;BME280;67214;47.454;18.966;2023-03-14T08:14:10;99046.17;;;13.02;47.71
77572;BME280;67214;47.454;18.966;2023-03-14T08:16:37;99033.36;;;13.10;47.55
77572;BME280;67214;47.454;18.966;2023-03-14T08:19:05;99037.72;;;13.11;47.47
77572;BME280;67214;47.454;18.966;2023-03-14T08:21:32;99030.91;;;13.24;46.40
77572;BME280;67214;47.454;18.966;2023-03-14T08:23:59;99028.73;;;13.24;46.20
77572;BME280;67214;47.454;18.966;2023-03-14T08:26:27;99033.37;;;13.38;46.94
77572;BME280;67214;47.454;18.966;2023-03-14T08:28:54;99028.17;;;13.61;46.72
77572;BME280;67214;47.454;18.966;2023-03-14T08:31:22;99031.10;;;13.78;45.70
77572;BME280;67214;47.454;18.966;2023-03-14T08:33:49;99022.02;;;14.03;45.76
77572;BME280;67214;47.454;18.966;2023-03-14T08:36:19;99021.05;;;14.31;45.24
77572;BME280;67214;47.454;18.966;2023-03-14T08:38:46;99017.44;;;14.59;44.24
77572;BME280;67214;47.454;18.966;2023-03-14T08:41:14;99015.32;;;14.73;44.43
77572;BME280;67214;47.454;18.966;2023-03-14T08:43:41;98999.02;;;14.91;44.51
77572;BME280;67214;47.454;18.966;2023-03-14T08:46:09;99011.83;;;14.95;44.24
77572;BME280;67214;47.454;18.966;2023-03-14T08:48:37;99011.72;;;15.07;43.87
77572;BME280;67214;47.454;18.966;2023-03-14T08:51:13;99008.51;;;15.45;42.59
77572;BME280;67214;47.454;18.966;2023-03-14T08:53:41;98995.11;;;15.68;42.54
77572;BME280;67214;47.454;18.966;2023-03-14T08:56:10;98987.53;;;15.86;40.91
77572;BME280;67214;47.454;18.966;2023-03-14T08:58:38;98981.80;;;16.04;41.54
77572;BME280;67214;47.454;18.966;2023-03-14T09:01:09;98981.98;;;16.02;40.99
77572;BME280;67214;47.454;18.966;2023-03-14T09:03:38;98973.73;;;16.08;40.82
77572;BME280;67214;47.454;18.966;2023-03-14T09:06:09;98985.87;;;16.00;40.96
77572;BME280;67214;47.454;18.966;2023-03-14T09:08:37;98977.39;;;15.96;41.09
77572;BME280;67214;47.454;18.966;2023-03-14T09:11:07;98966.75;;;15.92;41.59
77572;BME280;67214;47.454;18.966;2023-03-14T09:13:35;98973.95;;;16.17;41.46
77572;BME280;67214;47.454;18.966;2023-03-14T09:16:02;98966.02;;;16.34;41.46
77572;BME280;67214;47.454;18.966;2023-03-14T09:18:30;98953.31;;;16.43;40.40
77572;BME280;67214;47.454;18.966;2023-03-14T09:20:58;98954.53;;;16.51;40.96
77572;BME280;67214;47.454;18.966;2023-03-14T09:23:25;98958.80;;;16.70;41.03
77572;BME280;67214;47.454;18.966;2023-03-14T09:25:57;98938.30;;;16.84;40.18
77572;BME280;67214;47.454;18.966;2023-03-14T09:28:25;98946.56;;;17.10;41.31
77572;BME280;67214;47.454;18.966;2023-03-14T09:30:53;98936.53;;;17.19;39.74
77572;BME280;67214;47.454;18.966;2023-03-14T09:33:21;98936.48;;;17.30;39.62
77572;BME280;67214;47.454;18.966;2023-03-14T09:35:49;98935.14;;;17.30;39.65
77572;BME280;67214;47.454;18.966;2023-03-14T09:38:19;98934.73;;;17.43;39.79
77572;BME280;67214;47.454;18.966;2023-03-14T09:40:47;98924.09;;;17.56;39.67
77572;BME280;67214;47.454;18.966;2023-03-14T09:43:16;98925.16;;;17.62;39.70
77572;BME280;67214;47.454;18.966;2023-03-14T09:45:46;98910.29;;;17.77;39.18
77572;BME280;67214;47.454;18.966;2023-03-14T09:48:19;98906.20;;;17.87;39.64
77572;BME280;67214;47.454;18.966;2023-03-14T09:50:50;98902.05;;;18.08;39.51
77572;BME280;67214;47.454;18.966;2023-03-14T09:53:26;98884.83;;;18.20;38.86
77572;BME280;67214;47.454;18.966;2023-03-14T09:55:56;98876.48;;;18.39;38.51
77572;BME280;67214;47.454;18.966;2023-03-14T09:58:25;98895.69;;;18.36;38.73
77572;BME280;67214;47.454;18.966;2023-03-14T10:00:55;98882.02;;;18.61;37.90
77572;BME280;67214;47.454;18.966;2023-03-14T10:03:32;98874.16;;;18.99;37.16
77572;BME280;67214;47.454;18.966;2023-03-14T10:06:01;98860.14;;;19.26;36.65
77572;BME280;67214;47.454;18.966;2023-03-14T10:08:28;98857.12;;;18.76;35.89
77572;BME280;67214;47.454;18.966;2023-03-14T10:10:56;98854.09;;;19.01;37.63
77572;BME280;67214;47.454;18.966;2023-03-14T10:13:27;98869.52;;;19.52;35.59
77572;BME280;67214;47.454;18.966;2023-03-14T10:16:00;98849.63;;;19.53;35.00
77572;BME280;67214;47.454;18.966;2023-03-14T10:18:32;98834.48;;;19.43;35.27
77572;BME280;67214;47.454;18.966;2023-03-14T10:21:16;98829.24;;;19.77;35.62
77572;BME280;67214;47.454;18.966;2023-03-14T10:23:37;98824.89;;;19.98;34.69
77572;BME280;67214;47.454;18.966;2023-03-14T10:26:17;98824.63;;;20.06;34.54
77572;BME280;67214;47.454;18.966;2023-03-14T10:28:48;98827.09;;;19.54;34.81
77572;BME280;67214;47.454;18.966;2023-03-14T10:31:17;98820.28;;;19.52;35.44
77572;BME280;67214;47.454;18.966;2023-03-14T10:34:04;98818.75;;;19.46;35.63
77572;BME280;67214;47.454;18.966;2023-03-14T10:36:29;98824.80;;;19.16;36.15
77572;BME280;67214;47.454;18.966;2023-03-14T10:39:46;98821.16;;;18.90;36.67
77572;BME280;67214;47.454;18.966;2023-03-14T10:41:30;98831.59;;;18.89;36.31
77572;BME280;67214;47.454;18.966;2023-03-14T10:44:00;98833.52;;;19.04;35.95
77572;BME280;67214;47.454;18.966;2023-03-14T10:46:32;98804.52;;;19.20;36.33
77572;BME280;67214;47.454;18.966;2023-03-14T10:49:04;98818.83;;;19.49;35.75
77572;BME280;67214;47.454;18.966;2023-03-14T10:51:30;98799.67;;;19.55;35.58
77572;BME280;67214;47.454;18.966;2023-03-14T10:55:04;98804.75;;;19.91;35.05
77572;BME280;67214;47.454;18.966;2023-03-14T10:56:40;98810.85;;;19.74;35.05
77572;BME280;67214;47.454;18.966;2023-03-14T10:59:13;98799.45;;;19.94;34.85
77572;BME280;67214;47.454;18.966;2023-03-14T11:02:03;98796.22;;;20.32;34.43
77572;BME280;67214;47.454;18.966;2023-03-14T11:07:20;98789.05;;;19.88;35.34
77572;BME280;67214;47.454;18.966;2023-03-14T11:12:47;98775.98;;;19.76;35.20
77572;BME280;67214;47.454;18.966;2023-03-14T11:21:08;98770.53;;;20.30;34.76
77572;BME280;67214;47.454;18.966;2023-03-14T11:26:13;98749.99;;;20.35;34.81
77572;BME280;67214;47.454;18.966;2023-03-14T11:28:40;98753.96;;;20.33;34.96
77572;BME280;67214;47.454;18.966;2023-03-14T11:31:29;98725.17;;;20.27;34.82
77572;BME280;67214;47.454;18.966;2023-03-14T11:34:23;98755.95;;;19.97;35.01
77572;BME280;67214;47.454;18.966;2023-03-14T11:37:01;98739.43;;;20.18;34.93
77572;BME280;67214;47.454;18.966;2023-03-14T11:39:40;98744.70;;;20.07;35.05
77572;BME280;67214;47.454;18.966;2023-03-14T11:42:15;98732.91;;;20.08;35.16
77572;BME280;67214;47.454;18.966;2023-03-14T11:44:47;98728.48;;;20.04;35.04
77572;BME280;67214;47.454;18.966;2023-03-14T11:47:27;98731.36;;;20.18;34.68
77572;BME280;67214;47.454;18.966;2023-03-14T11:50:27;98729.11;;;20.31;34.55
77572;BME280;67214;47.454;18.966;2023-03-14T11:53:04;98723.23;;;20.40;34.35
77572;BME280;67214;47.454;18.966;2023-03-14T11:55:37;98721.25;;;20.72;34.21
77572;BME280;67214;47.454;18.966;2023-03-14T11:58:29;98713.20;;;20.23;34.49
77572;BME280;67214;47.454;18.966;2023-03-14T12:00:54;98736.96;;;19.92;34.72
77572;BME280;67214;47.454;18.966;2023-03-14T12:06:13;98711.22;;;19.87;34.68
77572;BME280;67214;47.454;18.966;2023-03-14T12:08:58;98706.17;;;19.81;34.59
77572;BME280;67214;47.454;18.966;2023-03-14T12:19:33;98695.92;;;19.56;35.02
77572;BME280;67214;47.454;18.966;2023-03-14T12:25:06;98678.69;;;19.41;35.53
77572;BME280;67214;47.454;18.966;2023-03-14T12:27:48;98681.89;;;19.41;35.70
77572;BME280;67214;47.454;18.966;2023-03-14T12:30:36;98668.50;;;19.34;35.68
77572;BME280;67214;47.454;18.966;2023-03-14T12:35:52;98664.98;;;19.34;36.00
77572;BME280;67214;47.454;18.966;2023-03-14T12:43:54;98650.59;;;19.60;35.02
77572;BME280;67214;47.454;18.966;2023-03-14T12:46:26;98646.83;;;19.61;34.92
77572;BME280;67214;47.454;18.966;2023-03-14T12:49:05;98647.23;;;19.48;35.23
77572;BME280;67214;47.454;18.966;2023-03-14T12:51:41;98636.37;;;19.30;35.71
77572;BME280;67214;47.454;18.966;2023-03-14T12:56:54;98636.83;;;19.21;36.13
77572;BME280;67214;47.454;18.966;2023-03-14T12:59:37;98628.56;;;19.07;36.75
77572;BME280;67214;47.454;18.966;2023-03-14T13:05:04;98628.11;;;18.87;37.25
77572;BME280;67214;47.454;18.966;2023-03-14T13:15:34;98624.84;;;18.50;37.65
77572;BME280;67214;47.454;18.966;2023-03-14T13:18:11;98621.05;;;18.42;37.93
77572;BME280;67214;47.454;18.966;2023-03-14T13:25:49;98624.50;;;18.20;38.22
77572;BME280;67214;47.454;18.966;2023-03-14T13:28:18;98621.63;;;18.22;38.46
77572;BME280;67214;47.454;18.966;2023-03-14T13:30:48;98626.05;;;18.19;38.26
77572;BME280;67214;47.454;18.966;2023-03-14T13:33:21;98626.56;;;18.18;38.17
77572;BME280;67214;47.454;18.966;2023-03-14T13:35:57;98627.81;;;18.16;38.32
77572;BME280;67214;47.454;18.966;2023-03-14T13:38:28;98624.70;;;18.19;38.19
77572;BME280;67214;47.454;18.966;2023-03-14T13:41:04;98626.05;;;18.25;38.18
77572;BME280;67214;47.454;18.966;2023-03-14T13:43:42;98634.10;;;18.25;37.93
77572;BME280;67214;47.454;18.966;2023-03-14T13:46:16;98623.16;;;18.20;37.94
77572;BME280;67214;47.454;18.966;2023-03-14T13:48:54;98632.77;;;18.12;38.72
77572;BME280;67214;47.454;18.966;2023-03-14T13:51:19;98622.47;;;18.09;38.14
77572;BME280;67214;47.454;18.966;2023-03-14T13:53:50;98631.75;;;18.13;38.01
77572;BME280;67214;47.454;18.966;2023-03-14T13:56:27;98628.63;;;18.09;37.82
77572;BME280;67214;47.454;18.966;2023-03-14T13:58:54;98629.13;;;18.29;37.51
77572;BME280;67214;47.454;18.966;2023-03-14T14:01:33;98626.97;;;18.28;37.78
77572;BME280;67214;47.454;18.966;2023-03-14T14:04:14;98629.34;;;18.34;37.56
77572;BME280;67214;47.454;18.966;2023-03-14T14:06:43;98630.25;;;18.37;37.80
77572;BME280;67214;47.454;18.966;2023-03-14T14:09:16;98607.91;;;18.56;37.74
77572;BME280;67214;47.454;18.966;2023-03-14T14:11:51;98617.22;;;18.53;37.68